Time;durP1;ratioP1;P1;durP2;ratioP2;P2;SDS_P1;SDS_P2;PMS_P1;PMS_P2;Temp;Humidity;BMP_temperature;BMP_pressure;BME280_temperature;BME280_humidity;BME280_pressure;Samples;Min_cycle;Max_cycle;Signal;HPM_P1;HPM_P2
2024/04/01 00:02:17;;;;;;;59.97;4.13;;;;;;;;;;5070920;28;20946;-67
2024/04/01 00:04:43;;;;;;;60.37;4.30;;;;;;;;;;5071091;28;20446;-67
2024/04/01 00:07:11;;;;;;;61.57;3.90;;;;;;;;;;5071021;28;20961;-67
2024/04/01 00:09:37;;;;;;;59.93;4.40;;;;;;;;;;5070347;28;20488;-67
2024/04/01 00:12:04;;;;;;;63.67;3.33;;;;;;;;;;5071222;28;20502;-67
2024/04/01 00:14:31;;;;;;;58.40;3.10;;;;;;;;;;5071181;28;20451;-67
2024/04/01 00:16:59;;;;;;;65.60;4.00;;;;;;;;;;5063092;28;20491;-67
2024/04/01 00:19:25;;;;;;;60.00;4.87;;;;;;;;;;5070433;28;20470;-67
2024/04/01 00:21:52;;;;;;;63.43;4.90;;;;;;;;;;5070754;28;20479;-67
2024/04/01 00:24:18;;;;;;;60.10;4.43;;;;;;;;;;5070589;28;20452;-67
2024/04/01 00:26:45;;;;;;;61.97;5.57;;;;;;;;;;5070961;28;20978;-67
2024/04/01 00:29:11;;;;;;;62.97;6.10;;;;;;;;;;5070439;28;20495;-68
2024/04/01 00:31:40;;;;;;;60.40;5.80;;;;;;;;;;5069946;28;20498;-67
2024/04/01 00:34:06;;;;;;;58.77;3.87;;;;;;;;;;5063735;28;20463;-67
2024/04/01 00:36:33;;;;;;;62.77;3.90;;;;;;;;;;5070740;28;20475;-67
2024/04/01 00:38:59;;;;;;;61.33;3.30;;;;;;;;;;5070715;28;20804;-67
2024/04/01 00:41:26;;;;;;;58.47;3.33;;;;;;;;;;5070539;28;20444;-67
2024/04/01 00:43:53;;;;;;;58.70;3.40;;;;;;;;;;5070762;28;20656;-67
2024/04/01 00:46:20;;;;;;;62.27;3.70;;;;;;;;;;5070930;28;20443;-68
2024/04/01 00:48:48;;;;;;;57.13;3.37;;;;;;;;;;5070524;28;21118;-68
2024/04/01 00:51:15;;;;;;;58.77;3.00;;;;;;;;;;5070136;28;20838;-68
2024/04/01 00:53:42;;;;;;;62.80;3.33;;;;;;;;;;5070703;28;20566;-68
2024/04/01 00:56:09;;;;;;;59.20;3.73;;;;;;;;;;5070914;28;20478;-68
2024/04/01 00:58:35;;;;;;;58.97;3.47;;;;;;;;;;5070862;28;20459;-69
2024/04/01 01:01:03;;;;;;;58.77;3.10;;;;;;;;;;5070323;28;20448;-68
2024/04/01 01:03:29;;;;;;;58.93;3.20;;;;;;;;;;5070492;28;20844;-68
2024/04/01 01:05:57;;;;;;;64.93;3.20;;;;;;;;;;5070514;28;20444;-68
2024/04/01 01:08:24;;;;;;;57.37;3.50;;;;;;;;;;5070846;28;20938;-68
2024/04/01 01:10:51;;;;;;;58.67;3.70;;;;;;;;;;5070216;28;20443;-68
2024/04/01 01:13:18;;;;;;;60.10;3.67;;;;;;;;;;5073495;28;20501;-68
2024/04/01 01:15:45;;;;;;;60.77;3.60;;;;;;;;;;5074152;28;20501;-68
2024/04/01 01:18:12;;;;;;;57.77;3.20;;;;;;;;;;5073896;28;21033;-68
2024/04/01 01:20:39;;;;;;;58.90;3.00;;;;;;;;;;5073473;28;20447;-68
2024/04/01 01:23:06;;;;;;;56.87;2.77;;;;;;;;;;5073964;28;20443;-68
2024/04/01 01:25:37;;;;;;;58.77;3.50;;;;;;;;;;5073852;28;21011;-68
2024/04/01 01:28:05;;;;;;;60.67;3.30;;;;;;;;;;5073796;28;20468;-68
2024/04/01 01:30:35;;;;;;;60.60;3.60;;;;;;;;;;5073204;28;20539;-68
2024/04/01 01:33:02;;;;;;;58.80;3.67;;;;;;;;;;5073597;28;20547;-68
2024/04/01 01:35:30;;;;;;;57.37;3.50;;;;;;;;;;5073639;28;20817;-68
2024/04/01 01:37:56;;;;;;;56.37;3.00;;;;;;;;;;5073300;28;20470;-68
2024/04/01 01:40:24;;;;;;;60.77;3.03;;;;;;;;;;5073219;28;20444;-68
2024/04/01 01:42:50;;;;;;;58.40;3.10;;;;;;;;;;5073316;28;20452;-68
2024/04/01 01:45:17;;;;;;;57.40;2.90;;;;;;;;;;5071294;28;20538;-68
2024/04/01 01:47:44;;;;;;;59.57;3.47;;;;;;;;;;5073378;28;21012;-68
2024/04/01 01:50:11;;;;;;;59.87;3.40;;;;;;;;;;5072873;28;20507;-68
2024/04/01 01:52:37;;;;;;;57.80;3.00;;;;;;;;;;5073195;28;20462;-68
2024/04/01 01:55:05;;;;;;;56.87;2.67;;;;;;;;;;5073291;28;20448;-68
2024/04/01 01:57:32;;;;;;;58.10;3.40;;;;;;;;;;5073080;28;20482;-68
2024/04/01 01:59:59;;;;;;;59.40;3.20;;;;;;;;;;5072840;28;20851;-68
2024/04/01 02:02:26;;;;;;;65.13;3.50;;;;;;;;;;5073131;28;20444;-68
2024/04/01 02:04:53;;;;;;;62.90;3.40;;;;;;;;;;5073203;28;20497;-68
2024/04/01 02:07:19;;;;;;;59.97;3.27;;;;;;;;;;5073076;28;20448;-68
2024/04/01 02:09:46;;;;;;;59.00;3.53;;;;;;;;;;5072455;28;20674;-68
2024/04/01 02:12:12;;;;;;;58.17;3.60;;;;;;;;;;5072949;28;20458;-68
2024/04/01 02:14:41;;;;;;;58.73;2.90;;;;;;;;;;5072844;28;20948;-68
2024/04/01 02:17:08;;;;;;;58.60;3.43;;;;;;;;;;5073224;28;20446;-68
2024/04/01 02:19:35;;;;;;;57.70;2.80;;;;;;;;;;5072216;28;21055;-68
2024/04/01 02:22:01;;;;;;;58.97;3.10;;;;;;;;;;5072573;28;20444;-68
2024/04/01 02:24:29;;;;;;;59.77;3.20;;;;;;;;;;5072319;28;20487;-68
2024/04/01 02:26:56;;;;;;;59.57;3.00;;;;;;;;;;5072952;28;20464;-68
2024/04/01 02:29:23;;;;;;;63.60;3.50;;;;;;;;;;5063710;28;20491;-68
2024/04/01 02:31:51;;;;;;;60.50;3.20;;;;;;;;;;5072459;28;20936;-68
2024/04/01 02:34:18;;;;;;;58.57;2.77;;;;;;;;;;5072618;28;20495;-68
2024/04/01 02:36:44;;;;;;;60.70;3.17;;;;;;;;;;5072487;28;20473;-68
2024/04/01 02:39:16;;;;;;;57.87;3.47;;;;;;;;;;5071824;28;20468;-68
2024/04/01 02:41:42;;;;;;;60.20;3.33;;;;;;;;;;5072403;28;20448;-68
2024/04/01 02:44:10;;;;;;;68.33;4.17;;;;;;;;;;5072451;28;20444;-68
2024/04/01 02:46:36;;;;;;;59.23;3.80;;;;;;;;;;5072477;28;20490;-68
2024/04/01 02:49:04;;;;;;;59.40;3.37;;;;;;;;;;5072162;28;20483;-68
2024/04/01 02:51:31;;;;;;;62.50;3.70;;;;;;;;;;5071748;28;20452;-68
2024/04/01 02:53:58;;;;;;;58.87;4.07;;;;;;;;;;5071989;28;20534;-68
2024/04/01 02:56:24;;;;;;;59.03;3.30;;;;;;;;;;5072550;28;20440;-68
2024/04/01 02:58:52;;;;;;;61.33;3.43;;;;;;;;;;5072127;28;20546;-68
2024/04/01 03:01:18;;;;;;;58.17;3.13;;;;;;;;;;5071564;28;20452;-68
2024/04/01 03:03:46;;;;;;;61.30;3.20;;;;;;;;;;5071771;28;20448;-68
2024/04/01 03:06:14;;;;;;;60.90;3.90;;;;;;;;;;5071842;28;20505;-68
2024/04/01 03:08:41;;;;;;;58.63;3.60;;;;;;;;;;5071627;28;21045;-68
2024/04/01 03:11:07;;;;;;;57.10;2.70;;;;;;;;;;5071577;28;20443;-68
2024/04/01 03:13:35;;;;;;;60.77;3.93;;;;;;;;;;5071674;28;20829;-68
2024/04/01 03:16:01;;;;;;;57.80;3.17;;;;;;;;;;5071836;28;20813;-68
2024/04/01 03:18:28;;;;;;;60.17;3.60;;;;;;;;;;5071618;28;20475;-72
2024/04/01 03:20:54;;;;;;;57.40;3.60;;;;;;;;;;5071066;28;20822;-68
2024/04/01 03:23:23;;;;;;;58.40;3.67;;;;;;;;;;5071740;28;20444;-68
2024/04/01 03:25:52;;;;;;;57.90;4.20;;;;;;;;;;5071509;28;20967;-68
2024/04/01 03:28:20;;;;;;;59.00;3.93;;;;;;;;;;5071568;28;20472;-68
2024/04/01 03:30:46;;;;;;;58.10;3.00;;;;;;;;;;5070959;28;20451;-68
2024/04/01 03:33:13;;;;;;;58.30;3.10;;;;;;;;;;5071361;28;20929;-68
2024/04/01 03:35:40;;;;;;;58.23;3.60;;;;;;;;;;5070599;28;20456;-68
2024/04/01 03:38:07;;;;;;;63.07;4.00;;;;;;;;;;5071581;28;20486;-68
2024/04/01 03:40:39;;;;;;;58.77;3.37;;;;;;;;;;5071197;28;20526;-68
2024/04/01 03:43:06;;;;;;;59.80;3.03;;;;;;;;;;5071245;28;20806;-68
2024/04/01 03:45:34;;;;;;;58.57;3.60;;;;;;;;;;5071228;28;20551;-68
2024/04/01 03:48:00;;;;;;;60.77;4.07;;;;;;;;;;5071817;28;20475;-68
2024/04/01 03:50:27;;;;;;;58.07;3.30;;;;;;;;;;5071109;28;20859;-68
2024/04/01 03:52:53;;;;;;;58.50;3.80;;;;;;;;;;5071202;28;20446;-68
2024/04/01 03:55:20;;;;;;;56.87;3.10;;;;;;;;;;5071247;28;20924;-68
2024/04/01 03:57:47;;;;;;;58.40;3.70;;;;;;;;;;5071191;28;20476;-68
2024/04/01 04:00:15;;;;;;;57.13;3.17;;;;;;;;;;5070700;28;20451;-68
2024/04/01 04:02:42;;;;;;;58.30;3.60;;;;;;;;;;5071237;28;20813;-68
2024/04/01 04:05:10;;;;;;;57.30;3.17;;;;;;;;;;5071327;28;20502;-68
2024/04/01 04:07:36;;;;;;;57.30;3.20;;;;;;;;;;5071211;28;20460;-68
2024/04/01 04:10:04;;;;;;;58.40;3.47;;;;;;;;;;5070513;28;20479;-68
2024/04/01 04:12:31;;;;;;;60.37;3.17;;;;;;;;;;5071452;28;20448;-68
2024/04/01 04:14:59;;;;;;;59.80;4.03;;;;;;;;;;5070885;28;20444;-68
2024/04/01 04:17:26;;;;;;;58.20;3.50;;;;;;;;;;5071310;28;20447;-68
2024/04/01 04:19:53;;;;;;;57.63;4.20;;;;;;;;;;5070687;28;20802;-68
2024/04/01 04:22:19;;;;;;;69.67;4.53;;;;;;;;;;5070926;28;20471;-68
2024/04/01 04:24:46;;;;;;;58.03;3.13;;;;;;;;;;5070944;28;20436;-68
2024/04/01 04:27:12;;;;;;;57.77;4.43;;;;;;;;;;5071000;28;20450;-68
2024/04/01 04:29:39;;;;;;;59.80;3.87;;;;;;;;;;5070256;28;20486;-68
2024/04/01 04:32:10;;;;;;;57.43;3.33;;;;;;;;;;5070845;28;20450;-68
2024/04/01 04:34:38;;;;;;;59.43;3.30;;;;;;;;;;5070908;28;20844;-68
2024/04/01 04:37:05;;;;;;;56.90;3.10;;;;;;;;;;5071029;28;20439;-68
2024/04/01 04:39:33;;;;;;;59.63;3.93;;;;;;;;;;5070353;28;20876;-68
2024/04/01 04:41:59;;;;;;;58.63;4.70;;;;;;;;;;5070929;28;20455;-68
2024/04/01 04:44:26;;;;;;;60.00;4.67;;;;;;;;;;5071004;28;20829;-68
2024/04/01 04:46:52;;;;;;;62.00;4.27;;;;;;;;;;5073994;28;20452;-68
2024/04/01 04:49:20;;;;;;;59.93;5.43;;;;;;;;;;5074520;28;20882;-68
2024/04/01 04:51:47;;;;;;;58.17;4.00;;;;;;;;;;5074820;28;20539;-68
2024/04/01 04:54:14;;;;;;;61.00;3.97;;;;;;;;;;5074968;28;20440;-68
2024/04/01 04:56:40;;;;;;;63.97;3.87;;;;;;;;;;5074957;28;20948;-68
2024/04/01 04:59:10;;;;;;;57.77;4.10;;;;;;;;;;5074752;28;20459;-68
2024/04/01 05:01:36;;;;;;;58.67;3.53;;;;;;;;;;5067963;28;20536;-68
2024/04/01 05:04:04;;;;;;;59.10;3.73;;;;;;;;;;5054701;28;20448;-68
2024/04/01 05:06:32;;;;;;;58.47;3.73;;;;;;;;;;5054986;28;20445;-68
2024/04/01 05:08:59;;;;;;;58.60;3.27;;;;;;;;;;5054648;28;20579;-68
2024/04/01 05:11:25;;;;;;;61.40;3.67;;;;;;;;;;5054513;28;20444;-68
2024/04/01 05:13:52;;;;;;;58.27;4.00;;;;;;;;;;5054443;28;20448;-68
2024/04/01 05:16:18;;;;;;;61.30;3.70;;;;;;;;;;5054964;28;20451;-68
2024/04/01 05:18:46;;;;;;;57.37;3.30;;;;;;;;;;5054613;28;20471;-68
2024/04/01 05:21:12;;;;;;;58.07;3.80;;;;;;;;;;5065751;28;20455;-68
2024/04/01 05:23:41;;;;;;;62.50;3.70;;;;;;;;;;5073831;28;20448;-68
2024/04/01 05:26:08;;;;;;;57.37;3.80;;;;;;;;;;5074122;28;20940;-68
2024/04/01 05:28:35;;;;;;;57.40;4.20;;;;;;;;;;5074199;28;20467;-68
2024/04/01 05:31:01;;;;;;;58.03;4.70;;;;;;;;;;5073580;28;20487;-67
2024/04/01 05:33:33;;;;;;;61.13;5.07;;;;;;;;;;5073940;28;20443;-67
2024/04/01 05:35:59;;;;;;;63.30;5.60;;;;;;;;;;5073756;28;20448;-68
2024/04/01 05:38:27;;;;;;;61.47;6.30;;;;;;;;;;5074216;28;20470;-67
2024/04/01 05:40:54;;;;;;;61.37;5.47;;;;;;;;;;5073696;28;20558;-67
2024/04/01 05:43:21;;;;;;;58.57;6.10;;;;;;;;;;5073775;28;20488;-68
2024/04/01 05:45:49;;;;;;;61.23;6.87;;;;;;;;;;5073765;28;20517;-68
2024/04/01 05:48:17;;;;;;;59.93;6.90;;;;;;;;;;5074015;28;20522;-67
2024/04/01 05:50:46;;;;;;;61.57;5.90;;;;;;;;;;5073053;28;21058;-67
2024/04/01 05:53:13;;;;;;;58.57;6.37;;;;;;;;;;5073585;28;20960;-67
2024/04/01 05:55:40;;;;;;;59.83;6.70;;;;;;;;;;5073745;28;20454;-67
2024/04/01 05:58:08;;;;;;;59.13;5.63;;;;;;;;;;5072588;28;20479;-67
2024/04/01 06:00:34;;;;;;;60.27;6.83;;;;;;;;;;5073104;28;20447;-67
2024/04/01 06:03:01;;;;;;;64.80;7.17;;;;;;;;;;5073085;28;20451;-68
2024/04/01 06:05:28;;;;;;;60.93;6.13;;;;;;;;;;5073670;28;20466;-67
2024/04/01 06:07:55;;;;;;;59.37;6.50;;;;;;;;;;5073300;28;20466;-67
2024/04/01 06:10:21;;;;;;;62.23;7.37;;;;;;;;;;5072944;28;20483;-68
2024/04/01 06:12:49;;;;;;;61.60;6.23;;;;;;;;;;5073388;28;20476;-67
2024/04/01 06:15:16;;;;;;;59.73;6.77;;;;;;;;;;5073764;28;20444;-67
2024/04/01 06:17:43;;;;;;;60.47;7.10;;;;;;;;;;5073161;28;20496;-68
2024/04/01 06:20:10;;;;;;;59.47;6.60;;;;;;;;;;5072517;28;20454;-68
2024/04/01 06:22:37;;;;;;;65.33;7.20;;;;;;;;;;5073062;28;20476;-68
2024/04/01 06:25:04;;;;;;;59.87;6.37;;;;;;;;;;5073207;28;20867;-67
2024/04/01 06:27:31;;;;;;;59.90;6.83;;;;;;;;;;5072644;28;20523;-68
2024/04/01 06:29:57;;;;;;;59.80;6.70;;;;;;;;;;5071981;28;20483;-67
2024/04/01 06:32:25;;;;;;;60.57;6.37;;;;;;;;;;5072212;28;20474;-68
2024/04/01 06:34:52;;;;;;;59.80;6.97;;;;;;;;;;5072386;28;20456;-67
2024/04/01 06:37:19;;;;;;;59.60;6.77;;;;;;;;;;5072537;28;20452;-67
2024/04/01 06:39:45;;;;;;;60.20;6.80;;;;;;;;;;5072234;28;20440;-67
2024/04/01 06:42:12;;;;;;;59.87;6.03;;;;;;;;;;5072035;28;20468;-67
2024/04/01 06:44:39;;;;;;;61.50;7.20;;;;;;;;;;5072211;28;20447;-67
2024/04/01 06:47:06;;;;;;;59.60;6.40;;;;;;;;;;5072086;28;20983;-67
2024/04/01 06:49:33;;;;;;;61.00;8.00;;;;;;;;;;5071614;28;20492;-67
2024/04/01 06:52:00;;;;;;;62.57;6.50;;;;;;;;;;5072003;28;20452;-67
2024/04/01 06:54:26;;;;;;;59.37;6.90;;;;;;;;;;5072258;28;20451;-68
2024/04/01 06:56:53;;;;;;;63.23;7.60;;;;;;;;;;5072116;28;20500;-67
2024/04/01 06:59:20;;;;;;;60.47;6.37;;;;;;;;;;5071400;28;20460;-66
2024/04/01 07:01:47;;;;;;;60.27;6.70;;;;;;;;;;5071842;28;20815;-69
2024/04/01 07:04:13;;;;;;;60.57;5.50;;;;;;;;;;5071894;28;20444;-67
2024/04/01 07:06:42;;;;;;;58.90;6.53;;;;;;;;;;5072052;28;20451;-67
2024/04/01 07:09:08;;;;;;;58.63;5.20;;;;;;;;;;5071594;28;20471;-67
2024/04/01 07:11:35;;;;;;;59.30;6.03;;;;;;;;;;5071605;28;20983;-67
2024/04/01 07:14:02;;;;;;;59.60;6.33;;;;;;;;;;5071534;28;20452;-67
2024/04/01 07:16:29;;;;;;;58.70;6.10;;;;;;;;;;5071621;28;20455;-66
2024/04/01 07:18:55;;;;;;;58.67;6.17;;;;;;;;;;5071698;28;20468;-67
2024/04/01 07:21:23;;;;;;;57.90;5.60;;;;;;;;;;5071390;28;20443;-66
2024/04/01 07:23:50;;;;;;;66.17;8.57;;;;;;;;;;5071091;28;20440;-66
2024/04/01 07:26:17;;;;;;;58.60;5.70;;;;;;;;;;5071612;28;20494;-67
2024/04/01 07:28:45;;;;;;;60.30;4.80;;;;;;;;;;5071343;28;20469;-66
2024/04/01 07:31:13;;;;;;;59.83;4.80;;;;;;;;;;5070842;28;20475;-66
2024/04/01 07:33:39;;;;;;;60.07;4.70;;;;;;;;;;5071371;28;20572;-66
2024/04/01 07:36:06;;;;;;;57.40;4.60;;;;;;;;;;5071576;28;20876;-66
2024/04/01 07:38:32;;;;;;;57.23;4.60;;;;;;;;;;5071380;28;20564;-67
2024/04/01 07:41:02;;;;;;;57.50;4.10;;;;;;;;;;5070787;28;20479;-66
2024/04/01 07:43:28;;;;;;;56.67;3.40;;;;;;;;;;5071266;28;20463;-67
2024/04/01 07:45:55;;;;;;;56.37;3.70;;;;;;;;;;5071355;28;20443;-67
2024/04/01 07:48:21;;;;;;;56.30;3.10;;;;;;;;;;5071147;28;20468;-67
2024/04/01 07:50:48;;;;;;;56.63;3.30;;;;;;;;;;5070821;28;20906;-67
2024/04/01 07:53:14;;;;;;;56.13;2.77;;;;;;;;;;5071005;28;20793;-67
2024/04/01 07:55:42;;;;;;;55.90;2.60;;;;;;;;;;5071065;28;20451;-67
2024/04/01 07:58:09;;;;;;;57.70;2.40;;;;;;;;;;5071013;28;20548;-66
2024/04/01 08:00:37;;;;;;;56.07;2.43;;;;;;;;;;5070685;28;20455;-67
2024/04/01 08:03:03;;;;;;;55.97;2.33;;;;;;;;;;5070962;28;20444;-67
2024/04/01 08:05:31;;;;;;;55.97;2.50;;;;;;;;;;5071139;28;20452;-67
2024/04/01 08:07:57;;;;;;;55.50;2.20;;;;;;;;;;5070998;28;20472;-67
2024/04/01 08:10:24;;;;;;;56.07;2.40;;;;;;;;;;5070398;28;20471;-68
2024/04/01 08:12:50;;;;;;;55.77;2.17;;;;;;;;;;5071056;28;20452;-68
2024/04/01 08:15:18;;;;;;;56.10;2.40;;;;;;;;;;5071098;28;20833;-68
2024/04/01 08:17:45;;;;;;;56.07;2.40;;;;;;;;;;5070987;28;20478;-67
2024/04/01 08:20:12;;;;;;;60.80;2.60;;;;;;;;;;5070547;28;20443;-67
2024/04/01 08:22:38;;;;;;;62.90;2.80;;;;;;;;;;5073994;28;20897;-67
2024/04/01 08:25:05;;;;;;;55.27;2.10;;;;;;;;;;5074907;28;20288;-67
2024/04/01 08:27:31;;;;;;;56.00;2.40;;;;;;;;;;5074963;28;20467;-68
2024/04/01 08:29:59;;;;;;;56.40;2.50;;;;;;;;;;5074505;28;20511;-68
2024/04/01 08:32:26;;;;;;;56.00;2.50;;;;;;;;;;5074869;28;20447;-67
2024/04/01 08:34:53;;;;;;;56.10;2.60;;;;;;;;;;5074652;28;20455;-67
2024/04/01 08:37:19;;;;;;;56.07;2.67;;;;;;;;;;5074662;28;20440;-67
2024/04/01 08:39:46;;;;;;;57.53;2.50;;;;;;;;;;5074258;28;21027;-67
2024/04/01 08:42:18;;;;;;;56.27;2.40;;;;;;;;;;5074253;28;20453;-67
2024/04/01 08:44:48;;;;;;;58.27;3.00;;;;;;;;;;5074631;28;20813;-68
2024/04/01 08:47:15;;;;;;;56.10;2.50;;;;;;;;;;5074441;28;20948;-68
2024/04/01 08:49:46;;;;;;;55.87;2.33;;;;;;;;;;5074071;28;20483;-67
2024/04/01 08:52:13;;;;;;;56.47;2.60;;;;;;;;;;5074679;28;20454;-67
2024/04/01 08:54:41;;;;;;;57.40;3.33;;;;;;;;;;5074920;28;20459;-68
2024/04/01 08:57:07;;;;;;;56.97;2.97;;;;;;;;;;5074842;28;20458;-67
2024/04/01 08:59:35;;;;;;;56.10;2.47;;;;;;;;;;5073993;28;20558;-68
2024/04/01 09:02:02;;;;;;;60.50;2.27;;;;;;;;;;5074128;28;20454;-67
2024/04/01 09:04:29;;;;;;;55.90;2.43;;;;;;;;;;5074665;28;20870;-68
2024/04/01 09:06:57;;;;;;;56.37;2.20;;;;;;;;;;5074460;28;20456;-67
2024/04/01 09:09:24;;;;;;;56.17;2.20;;;;;;;;;;5073769;28;20513;-68
2024/04/01 09:11:51;;;;;;;56.60;2.50;;;;;;;;;;5073974;28;20462;-68
2024/04/01 09:14:18;;;;;;;56.97;3.20;;;;;;;;;;5074065;28;20979;-68
2024/04/01 09:16:45;;;;;;;55.60;2.47;;;;;;;;;;5074151;28;20932;-67
2024/04/01 09:19:12;;;;;;;55.70;2.20;;;;;;;;;;5073375;28;20468;-68
2024/04/01 09:21:38;;;;;;;55.37;2.30;;;;;;;;;;5074136;28;20439;-67
2024/04/01 09:24:08;;;;;;;55.70;2.40;;;;;;;;;;5074233;28;20479;-68
2024/04/01 09:26:34;;;;;;;55.57;2.30;;;;;;;;;;5074054;28;20459;-67
2024/04/01 09:29:02;;;;;;;55.90;2.30;;;;;;;;;;5073834;28;20478;-68
2024/04/01 09:31:29;;;;;;;55.90;2.20;;;;;;;;;;5073204;28;20479;-67
2024/04/01 09:33:56;;;;;;;55.37;2.00;;;;;;;;;;5072312;28;20474;-68
2024/04/01 09:36:23;;;;;;;55.77;2.10;;;;;;;;;;5074023;28;20447;-67
2024/04/01 09:38:51;;;;;;;55.30;1.90;;;;;;;;;;5073956;28;20520;-67
2024/04/01 09:41:19;;;;;;;56.00;2.10;;;;;;;;;;5073417;28;20448;-67
2024/04/01 09:43:46;;;;;;;56.07;1.90;;;;;;;;;;5073396;28;20936;-67
2024/04/01 09:46:13;;;;;;;55.80;1.93;;;;;;;;;;5073612;28;20470;-67
2024/04/01 09:48:40;;;;;;;56.30;2.00;;;;;;;;;;5073940;28;20463;-67
2024/04/01 09:51:08;;;;;;;55.47;1.90;;;;;;;;;;5072867;28;20488;-67
2024/04/01 09:53:35;;;;;;;55.50;1.93;;;;;;;;;;5073360;28;20797;-67
2024/04/01 09:56:16;;;;;;;55.60;2.00;;;;;;;;;;5073455;28;20444;-67
2024/04/01 09:58:58;;;;;;;56.70;2.00;;;;;;;;;;5073394;28;20475;-67
2024/04/01 10:01:31;;;;;;;56.30;2.40;;;;;;;;;;5073089;28;20439;-67
2024/04/01 10:04:08;;;;;;;55.83;2.00;;;;;;;;;;5073349;28;20466;-67
2024/04/01 10:06:52;;;;;;;55.80;2.00;;;;;;;;;;5073368;28;20814;-67
2024/04/01 10:09:38;;;;;;;56.53;2.00;;;;;;;;;;5065726;28;20472;-67
2024/04/01 10:12:12;;;;;;;55.87;1.90;;;;;;;;;;5073015;28;20450;-67
2024/04/01 10:15:06;;;;;;;55.57;1.67;;;;;;;;;;5073007;28;20444;-67
2024/04/01 10:17:43;;;;;;;55.40;1.63;;;;;;;;;;5072990;28;20830;-67
2024/04/01 10:20:19;;;;;;;55.37;1.93;;;;;;;;;;5054677;28;20448;-67
2024/04/01 10:23:09;;;;;;;55.40;1.83;;;;;;;;;;5052626;28;20807;-67
2024/04/01 10:26:01;;;;;;;55.17;1.80;;;;;;;;;;5060172;28;20534;-67
2024/04/01 10:28:36;;;;;;;55.40;1.60;;;;;;;;;;5073150;28;20464;-67
2024/04/01 10:31:19;;;;;;;55.70;1.80;;;;;;;;;;5072260;28;20471;-67
2024/04/01 10:33:57;;;;;;;55.43;1.80;;;;;;;;;;5072426;28;20456;-66
2024/04/01 10:36:31;;;;;;;55.70;2.10;;;;;;;;;;5053984;28;20883;-66
2024/04/01 10:39:19;;;;;;;55.87;2.10;;;;;;;;;;5052729;28;20464;-67
2024/04/01 10:42:21;;;;;;;55.60;2.10;;;;;;;;;;5066674;28;20440;-67
2024/04/01 10:44:58;;;;;;;55.50;1.90;;;;;;;;;;5072342;28;20451;-67
2024/04/01 10:47:55;;;;;;;55.30;1.83;;;;;;;;;;5063998;28;20451;-67
2024/04/01 10:50:29;;;;;;;55.60;1.90;;;;;;;;;;5071755;28;20574;-67
2024/04/01 10:53:03;;;;;;;55.60;1.90;;;;;;;;;;5072024;28;20448;-67
2024/04/01 10:55:44;;;;;;;55.40;1.70;;;;;;;;;;5064262;28;20888;-67
2024/04/01 10:58:20;;;;;;;55.60;1.83;;;;;;;;;;5071806;28;20525;-67
2024/04/01 11:00:55;;;;;;;55.50;1.90;;;;;;;;;;5071882;28;20440;-67
2024/04/01 11:03:47;;;;;;;56.00;1.90;;;;;;;;;;5071685;28;20448;-67
2024/04/01 11:06:26;;;;;;;56.00;2.00;;;;;;;;;;5071987;28;20455;-67
2024/04/01 11:09:06;;;;;;;55.40;1.77;;;;;;;;;;5072173;28;20507;-66
2024/04/01 11:11:36;;;;;;;55.80;1.97;;;;;;;;;;5071222;28;20525;-66
2024/04/01 11:14:04;;;;;;;55.50;2.00;;;;;;;;;;5072039;28;20456;-66
2024/04/01 11:16:32;;;;;;;55.50;2.10;;;;;;;;;;5064041;28;20450;-67
2024/04/01 11:19:08;;;;;;;56.33;1.80;;;;;;;;;;5071677;28;20476;-67
2024/04/01 11:21:38;;;;;;;56.10;2.00;;;;;;;;;;5071371;28;20440;-67
2024/04/01 11:24:11;;;;;;;55.57;1.90;;;;;;;;;;5071545;28;20474;-67
2024/04/01 11:26:52;;;;;;;55.67;1.93;;;;;;;;;;5071749;28;20450;-67
2024/04/01 11:29:26;;;;;;;55.50;1.80;;;;;;;;;;5073416;28;20463;-67
2024/04/01 11:31:58;;;;;;;55.60;1.67;;;;;;;;;;5077938;28;20975;-66
2024/04/01 11:34:42;;;;;;;56.00;2.00;;;;;;;;;;5077659;28;20538;-67
2024/04/01 11:37:12;;;;;;;55.47;1.87;;;;;;;;;;5080119;28;20458;-67
2024/04/01 11:39:42;;;;;;;55.37;1.70;;;;;;;;;;5080350;28;20479;-67
2024/04/01 11:42:09;;;;;;;55.50;1.80;;;;;;;;;;5081093;28;20451;-67
2024/04/01 11:44:37;;;;;;;55.37;1.93;;;;;;;;;;5080524;28;20447;-66
2024/04/01 11:47:04;;;;;;;55.47;1.90;;;;;;;;;;5080353;28;20444;-67
2024/04/01 11:49:40;;;;;;;55.90;1.83;;;;;;;;;;5078851;28;21014;-66
2024/04/01 11:52:11;;;;;;;55.17;1.70;;;;;;;;;;5079045;28;21060;-67
2024/04/01 11:54:39;;;;;;;55.73;1.93;;;;;;;;;;5078929;28;20501;-67
2024/04/01 11:57:05;;;;;;;55.50;1.90;;;;;;;;;;5080205;28;20472;-67
2024/04/01 11:59:33;;;;;;;55.57;2.07;;;;;;;;;;5079605;28;20478;-68
2024/04/01 12:01:59;;;;;;;55.50;2.00;;;;;;;;;;5079593;28;20535;-67
2024/04/01 12:04:26;;;;;;;56.50;1.90;;;;;;;;;;5081375;28;20448;-67
2024/04/01 12:06:54;;;;;;;55.40;1.87;;;;;;;;;;5080882;28;20531;-67
2024/04/01 12:09:22;;;;;;;55.80;2.20;;;;;;;;;;5079905;28;20467;-67
2024/04/01 12:11:48;;;;;;;55.17;1.60;;;;;;;;;;5079081;28;20491;-68
2024/04/01 12:14:16;;;;;;;55.67;1.90;;;;;;;;;;5079802;28;20466;-67
2024/04/01 12:16:45;;;;;;;55.07;1.70;;;;;;;;;;5079534;28;20478;-67
2024/04/01 12:19:13;;;;;;;55.60;1.77;;;;;;;;;;5078518;28;20460;-67
2024/04/01 12:21:45;;;;;;;55.90;1.90;;;;;;;;;;5078725;28;20448;-67
2024/04/01 12:24:16;;;;;;;55.57;1.87;;;;;;;;;;5077532;28;20932;-68
2024/04/01 12:26:42;;;;;;;55.47;1.80;;;;;;;;;;5077982;28;20443;-67
2024/04/01 12:29:13;;;;;;;55.37;1.80;;;;;;;;;;5079196;28;20467;-66
2024/04/01 12:31:45;;;;;;;55.60;1.90;;;;;;;;;;5078971;28;20483;-67
2024/04/01 12:34:12;;;;;;;55.33;1.70;;;;;;;;;;5079377;28;20482;-66
2024/04/01 12:36:39;;;;;;;56.30;2.20;;;;;;;;;;5077854;28;20527;-67
2024/04/01 12:39:09;;;;;;;55.30;1.60;;;;;;;;;;5076108;28;20468;-67
2024/04/01 12:41:38;;;;;;;55.60;1.80;;;;;;;;;;5076281;28;20527;-67
2024/04/01 12:44:07;;;;;;;55.50;1.87;;;;;;;;;;5077303;28;20447;-68
2024/04/01 12:46:35;;;;;;;55.17;1.80;;;;;;;;;;5077649;28;20432;-67
2024/04/01 12:49:04;;;;;;;55.80;1.80;;;;;;;;;;5078561;28;20990;-67
2024/04/01 12:51:32;;;;;;;55.50;1.90;;;;;;;;;;5077031;28;20582;-67
2024/04/01 12:54:09;;;;;;;55.23;1.70;;;;;;;;;;5078516;28;20455;-67
2024/04/01 12:56:38;;;;;;;55.60;1.97;;;;;;;;;;5066833;28;20523;-67
2024/04/01 12:59:12;;;;;;;55.27;1.53;;;;;;;;;;5057814;28;20787;-67
2024/04/01 13:01:45;;;;;;;55.13;1.80;;;;;;;;;;5069846;28;20471;-67
2024/04/01 13:04:18;;;;;;;54.97;1.67;;;;;;;;;;5076925;28;20447;-67
2024/04/01 13:06:48;;;;;;;56.00;1.90;;;;;;;;;;5077533;28;20534;-67
2024/04/01 13:09:17;;;;;;;55.40;1.90;;;;;;;;;;5079889;28;20463;-67
2024/04/01 13:11:50;;;;;;;55.07;1.80;;;;;;;;;;5080285;28;20617;-68
2024/04/01 13:14:27;;;;;;;55.50;1.90;;;;;;;;;;5081625;28;20452;-67
2024/04/01 13:16:58;;;;;;;55.57;1.70;;;;;;;;;;5080748;28;20515;-67
2024/04/01 13:19:27;;;;;;;55.47;1.67;;;;;;;;;;5078949;28;20517;-67
2024/04/01 13:21:55;;;;;;;55.27;1.80;;;;;;;;;;5078572;28;20440;-67
2024/04/01 13:24:25;;;;;;;55.27;1.70;;;;;;;;;;5079102;28;20448;-67
2024/04/01 13:26:57;;;;;;;55.57;1.80;;;;;;;;;;5079558;28;20946;-67
2024/04/01 13:29:27;;;;;;;55.37;1.90;;;;;;;;;;5079743;28;20482;-66
2024/04/01 13:31:57;;;;;;;55.57;1.90;;;;;;;;;;5079424;28;20496;-68
2024/04/01 13:34:29;;;;;;;55.17;1.87;;;;;;;;;;5079627;28;20800;-67
2024/04/01 13:37:04;;;;;;;55.23;1.80;;;;;;;;;;5078144;28;20511;-68
2024/04/01 13:39:38;;;;;;;55.40;1.67;;;;;;;;;;5077900;28;20554;-67
2024/04/01 13:42:11;;;;;;;55.50;1.70;;;;;;;;;;5078399;28;20452;-67
2024/04/01 13:44:45;;;;;;;55.50;1.70;;;;;;;;;;5070156;28;20443;-68
2024/04/01 13:47:18;;;;;;;55.33;1.80;;;;;;;;;;5061653;28;20516;-68
2024/04/01 13:49:54;;;;;;;55.40;1.90;;;;;;;;;;5070933;28;20431;-67
2024/04/01 13:52:27;;;;;;;55.43;1.70;;;;;;;;;;5077941;28;20555;-67
2024/04/01 13:54:59;;;;;;;56.13;2.27;;;;;;;;;;5077462;28;20451;-68
2024/04/01 13:57:33;;;;;;;55.37;1.80;;;;;;;;;;5077462;28;20456;-68
2024/04/01 14:00:05;;;;;;;55.40;1.70;;;;;;;;;;5080512;28;21019;-68
2024/04/01 14:02:36;;;;;;;55.47;1.70;;;;;;;;;;5078647;28;20452;-68
2024/04/01 14:05:10;;;;;;;55.53;1.80;;;;;;;;;;5079608;28;20866;-68
2024/04/01 14:07:38;;;;;;;55.47;1.70;;;;;;;;;;5081127;28;20558;-68
2024/04/01 14:10:12;;;;;;;55.80;1.97;;;;;;;;;;5077311;28;20459;-67
2024/04/01 14:12:45;;;;;;;55.70;1.90;;;;;;;;;;5068162;28;21015;-68
2024/04/01 14:15:16;;;;;;;55.53;1.70;;;;;;;;;;5076219;28;20452;-68
2024/04/01 14:17:46;;;;;;;56.57;2.03;;;;;;;;;;5076130;28;20470;-68
2024/04/01 14:20:16;;;;;;;55.57;1.80;;;;;;;;;;5075679;28;20466;-68
2024/04/01 14:22:42;;;;;;;55.90;1.70;;;;;;;;;;5076186;28;20456;-68
2024/04/01 14:25:10;;;;;;;56.00;1.87;;;;;;;;;;5077306;28;20483;-68
2024/04/01 14:27:36;;;;;;;56.20;1.90;;;;;;;;;;5077353;28;20518;-68
2024/04/01 14:30:05;;;;;;;55.17;1.80;;;;;;;;;;5075708;28;20451;-67
2024/04/01 14:32:31;;;;;;;55.23;1.70;;;;;;;;;;5076843;28;20575;-68
2024/04/01 14:34:58;;;;;;;55.40;1.90;;;;;;;;;;5074812;28;20925;-68
2024/04/01 14:37:24;;;;;;;59.20;1.90;;;;;;;;;;5076339;28;20448;-68
2024/04/01 14:39:51;;;;;;;55.47;1.90;;;;;;;;;;5075785;28;20439;-68
2024/04/01 14:42:18;;;;;;;55.77;1.90;;;;;;;;;;5075891;28;20440;-67